sensor_id;sensor_type;location;lat;lon;timestamp;temperature;humidity
42743;DHT22;28397;44.552;-0.848;2024-02-28T00:00:00;7.40;99.90
42743;DHT22;28397;44.552;-0.848;2024-02-28T00:02:26;7.40;99.90
42743;DHT22;28397;44.552;-0.848;2024-02-28T00:04:53;7.30;99.90
42743;DHT22;28397;44.552;-0.848;2024-02-28T00:07:19;7.20;99.90
42743;DHT22;28397;44.552;-0.848;2024-02-28T00:09:44;7.20;99.90
42743;DHT22;28397;44.552;-0.848;2024-02-28T00:12:10;7.10;99.90
42743;DHT22;28397;44.552;-0.848;2024-02-28T00:14:35;7.00;99.90
42743;DHT22;28397;44.552;-0.848;2024-02-28T00:17:01;6.90;99.90
42743;DHT22;28397;44.552;-0.848;2024-02-28T00:19:27;6.80;99.90
42743;DHT22;28397;44.552;-0.848;2024-02-28T00:21:52;6.80;99.90
42743;DHT22;28397;44.552;-0.848;2024-02-28T00:24:18;6.70;99.90
42743;DHT22;28397;44.552;-0.848;2024-02-28T00:26:44;6.70;99.90
42743;DHT22;28397;44.552;-0.848;2024-02-28T00:29:10;6.60;99.90
42743;DHT22;28397;44.552;-0.848;2024-02-28T00:31:35;6.50;99.90
42743;DHT22;28397;44.552;-0.848;2024-02-28T00:34:01;6.50;99.90
42743;DHT22;28397;44.552;-0.848;2024-02-28T00:36:27;6.50;99.90
42743;DHT22;28397;44.552;-0.848;2024-02-28T00:38:52;6.50;99.90
42743;DHT22;28397;44.552;-0.848;2024-02-28T00:41:18;6.40;99.90
42743;DHT22;28397;44.552;-0.848;2024-02-28T00:43:44;6.40;99.90
42743;DHT22;28397;44.552;-0.848;2024-02-28T00:46:09;6.50;99.90
42743;DHT22;28397;44.552;-0.848;2024-02-28T00:48:38;6.40;99.90
42743;DHT22;28397;44.552;-0.848;2024-02-28T00:51:04;6.40;99.90
42743;DHT22;28397;44.552;-0.848;2024-02-28T00:53:30;6.30;99.90
42743;DHT22;28397;44.552;-0.848;2024-02-28T00:55:56;6.30;99.90
42743;DHT22;28397;44.552;-0.848;2024-02-28T00:58:22;6.20;99.90
42743;DHT22;28397;44.552;-0.848;2024-02-28T01:00:50;6.10;99.90
42743;DHT22;28397;44.552;-0.848;2024-02-28T01:03:16;6.00;99.90
42743;DHT22;28397;44.552;-0.848;2024-02-28T01:05:43;6.00;99.90
42743;DHT22;28397;44.552;-0.848;2024-02-28T01:08:09;6.00;99.90
42743;DHT22;28397;44.552;-0.848;2024-02-28T01:10:35;6.30;99.90
42743;DHT22;28397;44.552;-0.848;2024-02-28T01:13:02;6.50;99.90
42743;DHT22;28397;44.552;-0.848;2024-02-28T01:15:28;6.70;99.90
42743;DHT22;28397;44.552;-0.848;2024-02-28T01:17:53;6.60;99.90
42743;DHT22;28397;44.552;-0.848;2024-02-28T01:20:19;6.70;99.90
42743;DHT22;28397;44.552;-0.848;2024-02-28T01:22:45;6.70;99.90
42743;DHT22;28397;44.552;-0.848;2024-02-28T01:25:10;6.70;99.90
42743;DHT22;28397;44.552;-0.848;2024-02-28T01:27:36;6.50;99.90
42743;DHT22;28397;44.552;-0.848;2024-02-28T01:30:02;6.30;99.90
42743;DHT22;28397;44.552;-0.848;2024-02-28T01:32:29;6.10;99.90
42743;DHT22;28397;44.552;-0.848;2024-02-28T01:34:55;6.10;99.90
42743;DHT22;28397;44.552;-0.848;2024-02-28T01:37:21;6.00;99.90
42743;DHT22;28397;44.552;-0.848;2024-02-28T01:39:46;5.80;99.90
42743;DHT22;28397;44.552;-0.848;2024-02-28T01:42:14;5.70;99.90
42743;DHT22;28397;44.552;-0.848;2024-02-28T01:44:47;5.60;99.90
42743;DHT22;28397;44.552;-0.848;2024-02-28T01:47:17;5.60;99.90
42743;DHT22;28397;44.552;-0.848;2024-02-28T01:49:44;5.60;99.90
42743;DHT22;28397;44.552;-0.848;2024-02-28T01:52:12;5.60;99.90
42743;DHT22;28397;44.552;-0.848;2024-02-28T01:54:38;5.60;99.90
42743;DHT22;28397;44.552;-0.848;2024-02-28T01:57:05;5.50;99.90
42743;DHT22;28397;44.552;-0.848;2024-02-28T01:59:31;5.50;99.90
42743;DHT22;28397;44.552;-0.848;2024-02-28T02:01:57;5.50;99.90
42743;DHT22;28397;44.552;-0.848;2024-02-28T02:04:24;5.50;99.90
42743;DHT22;28397;44.552;-0.848;2024-02-28T02:06:50;5.40;99.90
42743;DHT22;28397;44.552;-0.848;2024-02-28T02:09:18;5.30;99.90
42743;DHT22;28397;44.552;-0.848;2024-02-28T02:11:44;5.20;99.90
42743;DHT22;28397;44.552;-0.848;2024-02-28T02:14:09;5.10;99.90
42743;DHT22;28397;44.552;-0.848;2024-02-28T02:16:35;5.20;99.90
42743;DHT22;28397;44.552;-0.848;2024-02-28T02:19:01;5.20;99.90
42743;DHT22;28397;44.552;-0.848;2024-02-28T02:21:30;5.10;99.90
42743;DHT22;28397;44.552;-0.848;2024-02-28T02:23:57;5.10;99.90
42743;DHT22;28397;44.552;-0.848;2024-02-28T02:26:23;5.00;99.90
42743;DHT22;28397;44.552;-0.848;2024-02-28T02:28:48;5.00;99.90
42743;DHT22;28397;44.552;-0.848;2024-02-28T02:31:14;4.90;99.90
42743;DHT22;28397;44.552;-0.848;2024-02-28T02:33:40;5.00;99.90
42743;DHT22;28397;44.552;-0.848;2024-02-28T02:36:06;4.90;99.90
42743;DHT22;28397;44.552;-0.848;2024-02-28T02:38:31;4.90;99.90
42743;DHT22;28397;44.552;-0.848;2024-02-28T02:40:57;5.00;99.90
42743;DHT22;28397;44.552;-0.848;2024-02-28T02:43:23;5.10;99.90
42743;DHT22;28397;44.552;-0.848;2024-02-28T02:45:48;5.10;99.90
42743;DHT22;28397;44.552;-0.848;2024-02-28T02:48:14;5.20;99.90
42743;DHT22;28397;44.552;-0.848;2024-02-28T02:50:40;5.10;99.90
42743;DHT22;28397;44.552;-0.848;2024-02-28T02:53:09;5.20;99.90
42743;DHT22;28397;44.552;-0.848;2024-02-28T02:55:34;5.10;99.90
42743;DHT22;28397;44.552;-0.848;2024-02-28T02:58:00;5.00;99.90
42743;DHT22;28397;44.552;-0.848;2024-02-28T03:00:26;5.00;99.90
42743;DHT22;28397;44.552;-0.848;2024-02-28T03:02:51;5.00;99.90
42743;DHT22;28397;44.552;-0.848;2024-02-28T03:05:17;5.00;99.90
42743;DHT22;28397;44.552;-0.848;2024-02-28T03:07:43;5.00;99.90
42743;DHT22;28397;44.552;-0.848;2024-02-28T03:10:09;4.90;99.90
42743;DHT22;28397;44.552;-0.848;2024-02-28T03:12:36;4.80;99.90
42743;DHT22;28397;44.552;-0.848;2024-02-28T03:15:02;4.80;99.90
42743;DHT22;28397;44.552;-0.848;2024-02-28T03:17:28;4.90;99.90
42743;DHT22;28397;44.552;-0.848;2024-02-28T03:19:54;5.20;99.90
42743;DHT22;28397;44.552;-0.848;2024-02-28T03:22:20;5.40;99.90
42743;DHT22;28397;44.552;-0.848;2024-02-28T03:24:46;5.60;99.90
42743;DHT22;28397;44.552;-0.848;2024-02-28T03:27:11;5.60;99.90
42743;DHT22;28397;44.552;-0.848;2024-02-28T03:29:37;5.60;99.90
42743;DHT22;28397;44.552;-0.848;2024-02-28T03:32:03;5.50;99.90
42743;DHT22;28397;44.552;-0.848;2024-02-28T03:34:29;5.50;99.90
42743;DHT22;28397;44.552;-0.848;2024-02-28T03:36:55;5.30;99.90
42743;DHT22;28397;44.552;-0.848;2024-02-28T03:39:21;5.10;99.90
42743;DHT22;28397;44.552;-0.848;2024-02-28T03:41:46;4.90;99.90
42743;DHT22;28397;44.552;-0.848;2024-02-28T03:44:12;4.80;99.90
42743;DHT22;28397;44.552;-0.848;2024-02-28T03:46:38;4.70;99.90
42743;DHT22;28397;44.552;-0.848;2024-02-28T03:49:03;4.70;99.90
42743;DHT22;28397;44.552;-0.848;2024-02-28T03:51:29;4.60;99.90
42743;DHT22;28397;44.552;-0.848;2024-02-28T03:53:55;4.50;99.90
42743;DHT22;28397;44.552;-0.848;2024-02-28T03:56:25;4.50;99.90
42743;DHT22;28397;44.552;-0.848;2024-02-28T03:58:51;4.40;99.90
42743;DHT22;28397;44.552;-0.848;2024-02-28T04:01:17;4.40;99.90
42743;DHT22;28397;44.552;-0.848;2024-02-28T04:03:43;4.40;99.90
42743;DHT22;28397;44.552;-0.848;2024-02-28T04:06:09;4.40;99.90
42743;DHT22;28397;44.552;-0.848;2024-02-28T04:08:35;4.40;99.90
42743;DHT22;28397;44.552;-0.848;2024-02-28T04:11:01;4.30;99.90
42743;DHT22;28397;44.552;-0.848;2024-02-28T04:13:26;4.30;99.90
42743;DHT22;28397;44.552;-0.848;2024-02-28T04:15:52;4.20;99.90
42743;DHT22;28397;44.552;-0.848;2024-02-28T04:18:18;4.20;99.90
42743;DHT22;28397;44.552;-0.848;2024-02-28T04:20:43;4.30;99.90
42743;DHT22;28397;44.552;-0.848;2024-02-28T04:23:09;4.20;99.90
42743;DHT22;28397;44.552;-0.848;2024-02-28T04:25:35;4.20;99.90
42743;DHT22;28397;44.552;-0.848;2024-02-28T04:28:01;4.10;99.90
42743;DHT22;28397;44.552;-0.848;2024-02-28T04:30:28;4.20;99.90
42743;DHT22;28397;44.552;-0.848;2024-02-28T04:32:53;4.10;99.90
42743;DHT22;28397;44.552;-0.848;2024-02-28T04:35:19;4.00;99.90
42743;DHT22;28397;44.552;-0.848;2024-02-28T04:37:48;4.00;99.90
42743;DHT22;28397;44.552;-0.848;2024-02-28T04:40:13;4.00;99.90
42743;DHT22;28397;44.552;-0.848;2024-02-28T04:42:39;3.90;99.90
42743;DHT22;28397;44.552;-0.848;2024-02-28T04:45:05;4.00;99.90
42743;DHT22;28397;44.552;-0.848;2024-02-28T04:47:31;4.00;99.90
42743;DHT22;28397;44.552;-0.848;2024-02-28T04:49:57;3.90;99.90
42743;DHT22;28397;44.552;-0.848;2024-02-28T04:52:23;3.90;99.90
42743;DHT22;28397;44.552;-0.848;2024-02-28T04:54:50;3.90;99.90
42743;DHT22;28397;44.552;-0.848;2024-02-28T04:57:16;3.90;99.90
42743;DHT22;28397;44.552;-0.848;2024-02-28T04:59:43;3.80;99.90
42743;DHT22;28397;44.552;-0.848;2024-02-28T05:02:09;3.80;99.90
42743;DHT22;28397;44.552;-0.848;2024-02-28T05:04:35;3.80;99.90
42743;DHT22;28397;44.552;-0.848;2024-02-28T05:07:01;3.80;99.90
42743;DHT22;28397;44.552;-0.848;2024-02-28T05:09:26;3.90;99.90
42743;DHT22;28397;44.552;-0.848;2024-02-28T05:11:52;3.90;99.90
42743;DHT22;28397;44.552;-0.848;2024-02-28T05:14:18;3.90;99.90
42743;DHT22;28397;44.552;-0.848;2024-02-28T05:16:44;3.90;99.90
42743;DHT22;28397;44.552;-0.848;2024-02-28T05:19:09;3.70;99.90
42743;DHT22;28397;44.552;-0.848;2024-02-28T05:21:42;3.70;99.90
42743;DHT22;28397;44.552;-0.848;2024-02-28T05:24:08;3.70;99.90
42743;DHT22;28397;44.552;-0.848;2024-02-28T05:26:37;3.70;99.90
42743;DHT22;28397;44.552;-0.848;2024-02-28T05:29:04;3.80;99.90
42743;DHT22;28397;44.552;-0.848;2024-02-28T05:31:31;3.80;99.90
42743;DHT22;28397;44.552;-0.848;2024-02-28T05:33:58;4.00;99.90
42743;DHT22;28397;44.552;-0.848;2024-02-28T05:36:25;4.30;99.90
42743;DHT22;28397;44.552;-0.848;2024-02-28T05:38:51;4.50;99.90
42743;DHT22;28397;44.552;-0.848;2024-02-28T05:41:17;4.60;99.90
42743;DHT22;28397;44.552;-0.848;2024-02-28T05:43:44;4.70;99.90
42743;DHT22;28397;44.552;-0.848;2024-02-28T05:46:10;4.80;99.90
42743;DHT22;28397;44.552;-0.848;2024-02-28T05:48:35;4.80;99.90
42743;DHT22;28397;44.552;-0.848;2024-02-28T05:51:01;4.70;99.90
42743;DHT22;28397;44.552;-0.848;2024-02-28T05:53:27;4.60;99.90
42743;DHT22;28397;44.552;-0.848;2024-02-28T05:55:54;4.40;99.90
42743;DHT22;28397;44.552;-0.848;2024-02-28T05:58:22;4.30;99.90
42743;DHT22;28397;44.552;-0.848;2024-02-28T06:00:49;4.20;99.90
42743;DHT22;28397;44.552;-0.848;2024-02-28T06:03:14;4.10;99.90
42743;DHT22;28397;44.552;-0.848;2024-02-28T06:05:40;4.00;99.90
42743;DHT22;28397;44.552;-0.848;2024-02-28T06:08:06;3.90;99.90
42743;DHT22;28397;44.552;-0.848;2024-02-28T06:10:32;3.90;99.90
42743;DHT22;28397;44.552;-0.848;2024-02-28T06:12:57;3.90;99.90
42743;DHT22;28397;44.552;-0.848;2024-02-28T06:15:23;3.80;99.90
42743;DHT22;28397;44.552;-0.848;2024-02-28T06:17:49;3.80;99.90
42743;DHT22;28397;44.552;-0.848;2024-02-28T06:20:14;3.80;99.90
42743;DHT22;28397;44.552;-0.848;2024-02-28T06:22:40;3.80;99.90
42743;DHT22;28397;44.552;-0.848;2024-02-28T06:25:07;3.80;99.90
42743;DHT22;28397;44.552;-0.848;2024-02-28T06:27:39;3.80;99.90
42743;DHT22;28397;44.552;-0.848;2024-02-28T06:30:06;3.80;99.90
42743;DHT22;28397;44.552;-0.848;2024-02-28T06:32:32;3.80;99.90
42743;DHT22;28397;44.552;-0.848;2024-02-28T06:34:58;3.90;99.90
42743;DHT22;28397;44.552;-0.848;2024-02-28T06:37:23;3.80;99.90
42743;DHT22;28397;44.552;-0.848;2024-02-28T06:39:49;3.80;99.90
42743;DHT22;28397;44.552;-0.848;2024-02-28T06:42:15;3.60;99.90
42743;DHT22;28397;44.552;-0.848;2024-02-28T06:44:40;3.60;99.90
42743;DHT22;28397;44.552;-0.848;2024-02-28T06:47:07;3.60;99.90
42743;DHT22;28397;44.552;-0.848;2024-02-28T06:49:33;3.60;99.90
42743;DHT22;28397;44.552;-0.848;2024-02-28T06:51:58;3.60;99.90
42743;DHT22;28397;44.552;-0.848;2024-02-28T06:54:27;3.60;99.90
42743;DHT22;28397;44.552;-0.848;2024-02-28T06:56:53;3.70;99.90
42743;DHT22;28397;44.552;-0.848;2024-02-28T06:59:19;3.70;99.90
42743;DHT22;28397;44.552;-0.848;2024-02-28T07:01:44;3.70;99.90
42743;DHT22;28397;44.552;-0.848;2024-02-28T07:04:10;3.70;99.90
42743;DHT22;28397;44.552;-0.848;2024-02-28T07:06:37;3.60;99.90
42743;DHT22;28397;44.552;-0.848;2024-02-28T07:09:02;3.70;99.90
42743;DHT22;28397;44.552;-0.848;2024-02-28T07:11:28;3.70;99.90
42743;DHT22;28397;44.552;-0.848;2024-02-28T07:13:54;3.70;99.90
42743;DHT22;28397;44.552;-0.848;2024-02-28T07:16:19;3.70;99.90
42743;DHT22;28397;44.552;-0.848;2024-02-28T07:18:45;3.70;99.90
42743;DHT22;28397;44.552;-0.848;2024-02-28T07:21:11;3.80;99.90
42743;DHT22;28397;44.552;-0.848;2024-02-28T07:23:40;3.90;99.90
42743;DHT22;28397;44.552;-0.848;2024-02-28T07:26:06;3.90;99.90
42743;DHT22;28397;44.552;-0.848;2024-02-28T07:28:32;3.90;99.90
42743;DHT22;28397;44.552;-0.848;2024-02-28T07:30:58;3.90;99.90
42743;DHT22;28397;44.552;-0.848;2024-02-28T07:33:24;4.00;99.90
42743;DHT22;28397;44.552;-0.848;2024-02-28T07:35:52;4.00;99.90
42743;DHT22;28397;44.552;-0.848;2024-02-28T07:38:18;4.10;99.90
42743;DHT22;28397;44.552;-0.848;2024-02-28T07:40:47;4.10;99.90
42743;DHT22;28397;44.552;-0.848;2024-02-28T07:43:13;4.20;99.90
42743;DHT22;28397;44.552;-0.848;2024-02-28T07:45:39;4.20;99.90
42743;DHT22;28397;44.552;-0.848;2024-02-28T07:48:05;4.20;99.90
42743;DHT22;28397;44.552;-0.848;2024-02-28T07:50:31;4.30;99.90
42743;DHT22;28397;44.552;-0.848;2024-02-28T07:52:57;4.60;99.90
42743;DHT22;28397;44.552;-0.848;2024-02-28T07:55:22;4.90;99.90
42743;DHT22;28397;44.552;-0.848;2024-02-28T07:57:52;5.10;99.90
42743;DHT22;28397;44.552;-0.848;2024-02-28T08:00:18;5.20;99.90
42743;DHT22;28397;44.552;-0.848;2024-02-28T08:02:45;5.30;99.90
42743;DHT22;28397;44.552;-0.848;2024-02-28T08:05:11;5.40;99.90
42743;DHT22;28397;44.552;-0.848;2024-02-28T08:07:36;5.50;99.90
42743;DHT22;28397;44.552;-0.848;2024-02-28T08:10:03;5.40;99.90
42743;DHT22;28397;44.552;-0.848;2024-02-28T08:12:31;5.20;99.90
42743;DHT22;28397;44.552;-0.848;2024-02-28T08:14:57;5.10;99.90
42743;DHT22;28397;44.552;-0.848;2024-02-28T08:17:23;4.90;99.90
42743;DHT22;28397;44.552;-0.848;2024-02-28T08:19:49;4.80;99.90
42743;DHT22;28397;44.552;-0.848;2024-02-28T08:22:15;4.80;99.90
42743;DHT22;28397;44.552;-0.848;2024-02-28T08:24:40;4.80;99.90
42743;DHT22;28397;44.552;-0.848;2024-02-28T08:27:06;4.80;99.90
42743;DHT22;28397;44.552;-0.848;2024-02-28T08:29:32;4.80;99.90
42743;DHT22;28397;44.552;-0.848;2024-02-28T08:31:58;4.90;99.90
42743;DHT22;28397;44.552;-0.848;2024-02-28T08:34:26;5.00;99.90
42743;DHT22;28397;44.552;-0.848;2024-02-28T08:36:52;5.10;99.90
42743;DHT22;28397;44.552;-0.848;2024-02-28T08:39:17;5.20;99.90
42743;DHT22;28397;44.552;-0.848;2024-02-28T08:41:43;5.30;99.90
42743;DHT22;28397;44.552;-0.848;2024-02-28T08:44:09;5.40;99.90
42743;DHT22;28397;44.552;-0.848;2024-02-28T08:46:35;5.50;99.90
42743;DHT22;28397;44.552;-0.848;2024-02-28T08:49:00;5.60;99.90
42743;DHT22;28397;44.552;-0.848;2024-02-28T08:51:26;5.70;99.90
42743;DHT22;28397;44.552;-0.848;2024-02-28T08:53:52;5.80;99.90
42743;DHT22;28397;44.552;-0.848;2024-02-28T08:56:20;5.90;99.90
42743;DHT22;28397;44.552;-0.848;2024-02-28T08:58:46;5.90;99.90
42743;DHT22;28397;44.552;-0.848;2024-02-28T09:01:15;6.00;99.90
42743;DHT22;28397;44.552;-0.848;2024-02-28T09:03:41;6.00;99.90
42743;DHT22;28397;44.552;-0.848;2024-02-28T09:06:06;6.10;99.90
42743;DHT22;28397;44.552;-0.848;2024-02-28T09:08:32;6.10;99.90
42743;DHT22;28397;44.552;-0.848;2024-02-28T09:10:58;6.20;99.90
42743;DHT22;28397;44.552;-0.848;2024-02-28T09:13:24;6.30;99.90
42743;DHT22;28397;44.552;-0.848;2024-02-28T09:15:49;6.30;99.90
42743;DHT22;28397;44.552;-0.848;2024-02-28T09:18:16;6.40;99.90
42743;DHT22;28397;44.552;-0.848;2024-02-28T09:20:42;6.50;99.90
42743;DHT22;28397;44.552;-0.848;2024-02-28T09:23:08;6.60;99.90
42743;DHT22;28397;44.552;-0.848;2024-02-28T09:25:34;6.80;99.90
42743;DHT22;28397;44.552;-0.848;2024-02-28T09:28:01;6.90;99.90
42743;DHT22;28397;44.552;-0.848;2024-02-28T09:30:27;6.90;99.90
42743;DHT22;28397;44.552;-0.848;2024-02-28T09:32:53;7.00;99.90
42743;DHT22;28397;44.552;-0.848;2024-02-28T09:35:19;7.10;99.90
42743;DHT22;28397;44.552;-0.848;2024-02-28T09:37:45;7.20;99.90
42743;DHT22;28397;44.552;-0.848;2024-02-28T09:40:11;7.20;99.90
42743;DHT22;28397;44.552;-0.848;2024-02-28T09:42:38;7.30;99.90
42743;DHT22;28397;44.552;-0.848;2024-02-28T09:45:04;7.30;99.90
42743;DHT22;28397;44.552;-0.848;2024-02-28T09:47:30;7.40;99.90
42743;DHT22;28397;44.552;-0.848;2024-02-28T09:49:57;7.50;99.90
42743;DHT22;28397;44.552;-0.848;2024-02-28T09:52:26;7.60;99.90
42743;DHT22;28397;44.552;-0.848;2024-02-28T09:54:53;7.60;99.90
42743;DHT22;28397;44.552;-0.848;2024-02-28T09:57:19;7.60;99.90
42743;DHT22;28397;44.552;-0.848;2024-02-28T09:59:45;7.70;99.90
42743;DHT22;28397;44.552;-0.848;2024-02-28T10:02:12;7.90;99.90
42743;DHT22;28397;44.552;-0.848;2024-02-28T10:04:39;8.10;99.90
42743;DHT22;28397;44.552;-0.848;2024-02-28T10:07:14;8.40;99.90
42743;DHT22;28397;44.552;-0.848;2024-02-28T10:09:42;8.60;99.90
42743;DHT22;28397;44.552;-0.848;2024-02-28T10:12:08;8.70;99.90
42743;DHT22;28397;44.552;-0.848;2024-02-28T10:14:34;8.90;99.90
42743;DHT22;28397;44.552;-0.848;2024-02-28T10:17:00;9.20;99.90
42743;DHT22;28397;44.552;-0.848;2024-02-28T10:19:26;9.30;99.90
42743;DHT22;28397;44.552;-0.848;2024-02-28T10:21:52;9.30;99.90
42743;DHT22;28397;44.552;-0.848;2024-02-28T10:24:18;9.30;99.90
42743;DHT22;28397;44.552;-0.848;2024-02-28T10:26:45;9.20;99.90
42743;DHT22;28397;44.552;-0.848;2024-02-28T10:29:11;9.10;99.90
42743;DHT22;28397;44.552;-0.848;2024-02-28T10:31:37;9.20;99.90
42743;DHT22;28397;44.552;-0.848;2024-02-28T10:34:04;9.10;99.90
42743;DHT22;28397;44.552;-0.848;2024-02-28T10:36:32;9.10;99.90
42743;DHT22;28397;44.552;-0.848;2024-02-28T10:38:59;9.20;99.90
42743;DHT22;28397;44.552;-0.848;2024-02-28T10:41:26;9.10;99.90
42743;DHT22;28397;44.552;-0.848;2024-02-28T10:43:53;9.10;99.90
42743;DHT22;28397;44.552;-0.848;2024-02-28T10:46:22;9.30;99.90
42743;DHT22;28397;44.552;-0.848;2024-02-28T10:48:49;9.40;99.90
42743;DHT22;28397;44.552;-0.848;2024-02-28T10:51:23;9.50;99.90
42743;DHT22;28397;44.552;-0.848;2024-02-28T10:53:50;9.70;99.90
42743;DHT22;28397;44.552;-0.848;2024-02-28T10:56:20;9.70;99.90
42743;DHT22;28397;44.552;-0.848;2024-02-28T10:58:57;9.80;99.90
42743;DHT22;28397;44.552;-0.848;2024-02-28T11:01:23;9.80;99.90
42743;DHT22;28397;44.552;-0.848;2024-02-28T11:03:50;9.90;99.90
42743;DHT22;28397;44.552;-0.848;2024-02-28T11:06:21;10.00;99.90
42743;DHT22;28397;44.552;-0.848;2024-02-28T11:08:48;10.00;99.90
42743;DHT22;28397;44.552;-0.848;2024-02-28T11:11:15;10.00;99.90
42743;DHT22;28397;44.552;-0.848;2024-02-28T11:13:55;10.10;99.90
42743;DHT22;28397;44.552;-0.848;2024-02-28T11:16:28;10.10;99.90
42743;DHT22;28397;44.552;-0.848;2024-02-28T11:18:54;10.10;99.90
42743;DHT22;28397;44.552;-0.848;2024-02-28T11:21:23;10.20;99.90
42743;DHT22;28397;44.552;-0.848;2024-02-28T11:23:50;10.30;99.90
42743;DHT22;28397;44.552;-0.848;2024-02-28T11:26:16;10.30;99.90
42743;DHT22;28397;44.552;-0.848;2024-02-28T11:28:42;10.30;99.90
42743;DHT22;28397;44.552;-0.848;2024-02-28T11:31:08;10.40;99.90
42743;DHT22;28397;44.552;-0.848;2024-02-28T11:33:33;10.60;99.90
42743;DHT22;28397;44.552;-0.848;2024-02-28T11:35:59;10.50;99.90
42743;DHT22;28397;44.552;-0.848;2024-02-28T11:38:26;10.60;99.90
42743;DHT22;28397;44.552;-0.848;2024-02-28T11:40:52;10.70;99.90
42743;DHT22;28397;44.552;-0.848;2024-02-28T11:43:18;10.80;99.90
42743;DHT22;28397;44.552;-0.848;2024-02-28T11:45:44;10.80;99.90
42743;DHT22;28397;44.552;-0.848;2024-02-28T11:48:15;10.80;99.90
42743;DHT22;28397;44.552;-0.848;2024-02-28T11:50:41;10.90;99.90
42743;DHT22;28397;44.552;-0.848;2024-02-28T11:53:07;10.80;99.90
42743;DHT22;28397;44.552;-0.848;2024-02-28T11:55:33;10.80;99.90
42743;DHT22;28397;44.552;-0.848;2024-02-28T11:57:59;10.90;99.90
42743;DHT22;28397;44.552;-0.848;2024-02-28T12:00:24;11.10;99.90
42743;DHT22;28397;44.552;-0.848;2024-02-28T12:02:50;11.30;99.90
42743;DHT22;28397;44.552;-0.848;2024-02-28T12:05:16;11.60;99.90
42743;DHT22;28397;44.552;-0.848;2024-02-28T12:07:42;11.70;99.90
42743;DHT22;28397;44.552;-0.848;2024-02-28T12:10:09;11.70;99.90
42743;DHT22;28397;44.552;-0.848;2024-02-28T12:12:35;11.80;99.90
42743;DHT22;28397;44.552;-0.848;2024-02-28T12:15:01;11.80;99.90
42743;DHT22;28397;44.552;-0.848;2024-02-28T12:17:29;11.80;99.90
42743;DHT22;28397;44.552;-0.848;2024-02-28T12:19:55;12.00;99.90
42743;DHT22;28397;44.552;-0.848;2024-02-28T12:22:21;12.00;99.90
42743;DHT22;28397;44.552;-0.848;2024-02-28T12:24:47;11.90;99.90
42743;DHT22;28397;44.552;-0.848;2024-02-28T12:27:12;11.90;99.90
42743;DHT22;28397;44.552;-0.848;2024-02-28T12:29:38;11.80;99.90
42743;DHT22;28397;44.552;-0.848;2024-02-28T12:32:04;11.80;99.90
42743;DHT22;28397;44.552;-0.848;2024-02-28T12:34:30;11.80;99.90
42743;DHT22;28397;44.552;-0.848;2024-02-28T12:36:55;11.80;99.90
42743;DHT22;28397;44.552;-0.848;2024-02-28T12:39:21;11.70;99.90
42743;DHT22;28397;44.552;-0.848;2024-02-28T12:41:48;11.80;99.90
42743;DHT22;28397;44.552;-0.848;2024-02-28T12:44:14;11.90;99.90
42743;DHT22;28397;44.552;-0.848;2024-02-28T12:46:39;11.90;99.90
42743;DHT22;28397;44.552;-0.848;2024-02-28T12:49:05;12.00;99.90
42743;DHT22;28397;44.552;-0.848;2024-02-28T12:54:07;12.20;99.90
42743;DHT22;28397;44.552;-0.848;2024-02-28T12:56:36;12.30;99.90
42743;DHT22;28397;44.552;-0.848;2024-02-28T12:59:03;12.40;99.90
42743;DHT22;28397;44.552;-0.848;2024-02-28T13:01:29;12.40;99.90
42743;DHT22;28397;44.552;-0.848;2024-02-28T13:03:56;12.50;99.90
42743;DHT22;28397;44.552;-0.848;2024-02-28T13:06:22;12.60;99.90
42743;DHT22;28397;44.552;-0.848;2024-02-28T13:08:48;12.50;99.90
42743;DHT22;28397;44.552;-0.848;2024-02-28T13:11:21;12.60;99.90
42743;DHT22;28397;44.552;-0.848;2024-02-28T13:13:51;12.80;99.90
42743;DHT22;28397;44.552;-0.848;2024-02-28T13:16:17;12.80;99.90
42743;DHT22;28397;44.552;-0.848;2024-02-28T13:18:43;12.80;99.90
42743;DHT22;28397;44.552;-0.848;2024-02-28T13:21:10;12.90;99.90
42743;DHT22;28397;44.552;-0.848;2024-02-28T13:23:36;12.80;99.90
42743;DHT22;28397;44.552;-0.848;2024-02-28T13:26:06;12.90;99.90
42743;DHT22;28397;44.552;-0.848;2024-02-28T13:28:32;12.90;99.90
42743;DHT22;28397;44.552;-0.848;2024-02-28T13:30:59;12.80;99.90
42743;DHT22;28397;44.552;-0.848;2024-02-28T13:33:26;12.90;99.90
42743;DHT22;28397;44.552;-0.848;2024-02-28T13:35:52;13.10;99.90
42743;DHT22;28397;44.552;-0.848;2024-02-28T13:38:19;13.20;99.90
42743;DHT22;28397;44.552;-0.848;2024-02-28T13:40:45;13.40;99.90
42743;DHT22;28397;44.552;-0.848;2024-02-28T13:43:11;13.50;99.90
42743;DHT22;28397;44.552;-0.848;2024-02-28T13:45:38;13.50;99.90
42743;DHT22;28397;44.552;-0.848;2024-02-28T13:48:23;13.60;99.90
42743;DHT22;28397;44.552;-0.848;2024-02-28T13:50:59;13.90;99.90
42743;DHT22;28397;44.552;-0.848;2024-02-28T13:53:25;14.00;99.90
42743;DHT22;28397;44.552;-0.848;2024-02-28T13:55:51;14.10;99.90
42743;DHT22;28397;44.552;-0.848;2024-02-28T13:58:17;14.30;99.90
42743;DHT22;28397;44.552;-0.848;2024-02-28T14:00:44;14.30;99.90
42743;DHT22;28397;44.552;-0.848;2024-02-28T14:03:14;14.20;99.90
42743;DHT22;28397;44.552;-0.848;2024-02-28T14:05:40;14.20;99.90
42743;DHT22;28397;44.552;-0.848;2024-02-28T14:08:06;14.10;99.90
42743;DHT22;28397;44.552;-0.848;2024-02-28T14:10:37;14.00;99.90
42743;DHT22;28397;44.552;-0.848;2024-02-28T14:13:03;13.90;99.90
42743;DHT22;28397;44.552;-0.848;2024-02-28T14:15:28;13.90;99.90
42743;DHT22;28397;44.552;-0.848;2024-02-28T14:17:54;14.00;99.90
42743;DHT22;28397;44.552;-0.848;2024-02-28T14:20:20;14.30;99.90
42743;DHT22;28397;44.552;-0.848;2024-02-28T14:22:46;14.50;99.90
42743;DHT22;28397;44.552;-0.848;2024-02-28T14:25:13;14.50;99.90
42743;DHT22;28397;44.552;-0.848;2024-02-28T14:27:39;14.50;99.90
42743;DHT22;28397;44.552;-0.848;2024-02-28T14:30:08;14.50;99.90
42743;DHT22;28397;44.552;-0.848;2024-02-28T14:32:34;14.50;99.90
42743;DHT22;28397;44.552;-0.848;2024-02-28T14:35:02;14.60;99.90
42743;DHT22;28397;44.552;-0.848;2024-02-28T14:37:28;14.60;99.90
42743;DHT22;28397;44.552;-0.848;2024-02-28T14:39:55;14.70;99.90
42743;DHT22;28397;44.552;-0.848;2024-02-28T14:42:20;14.70;99.90
42743;DHT22;28397;44.552;-0.848;2024-02-28T14:44:46;14.80;99.90
42743;DHT22;28397;44.552;-0.848;2024-02-28T14:47:11;14.70;99.90
42743;DHT22;28397;44.552;-0.848;2024-02-28T14:49:37;14.90;99.90
42743;DHT22;28397;44.552;-0.848;2024-02-28T14:52:03;14.90;99.90
42743;DHT22;28397;44.552;-0.848;2024-02-28T14:54:29;15.10;99.90
42743;DHT22;28397;44.552;-0.848;2024-02-28T14:56:55;15.20;99.90
42743;DHT22;28397;44.552;-0.848;2024-02-28T14:59:20;15.10;99.90
42743;DHT22;28397;44.552;-0.848;2024-02-28T15:01:49;14.70;99.90
42743;DHT22;28397;44.552;-0.848;2024-02-28T15:04:15;14.80;99.90
42743;DHT22;28397;44.552;-0.848;2024-02-28T15:06:41;14.90;99.90
42743;DHT22;28397;44.552;-0.848;2024-02-28T15:09:07;14.80;99.90
42743;DHT22;28397;44.552;-0.848;2024-02-28T15:11:34;14.50;99.90
42743;DHT22;28397;44.552;-0.848;2024-02-28T15:14:00;14.40;99.90
42743;DHT22;28397;44.552;-0.848;2024-02-28T15:16:25;14.30;99.90
42743;DHT22;28397;44.552;-0.848;2024-02-28T15:18:51;14.20;99.90
42743;DHT22;28397;44.552;-0.848;2024-02-28T15:21:17;14.10;99.90
42743;DHT22;28397;44.552;-0.848;2024-02-28T15:23:42;14.00;99.90